Time;durP1;ratioP1;P1;durP2;ratioP2;P2;SDS_P1;SDS_P2;PMS_P1;PMS_P2;Temp;Humidity;BMP_temperature;BMP_pressure;BME280_temperature;BME280_humidity;BME280_pressure;Samples;Min_cycle;Max_cycle;Signal;HPM_P1;HPM_P2
2023/03/06 00:02:01;;;;;;;47.57;20.57;;;;;;;;;;10368756;28;20099;-85
2023/03/06 00:07:02;;;;;;;41.97;18.53;;;;;;;;;;10361635;28;20042;-85
2023/03/06 00:12:03;;;;;;;41.63;19.47;;;;;;;;;;10360782;28;20782;-85
2023/03/06 00:17:04;;;;;;;28.10;14.33;;;;;;;;;;10356166;28;20029;-85
2023/03/06 00:22:05;;;;;;;33.83;15.40;;;;;;;;;;10360914;28;20360;-85
2023/03/06 00:27:06;;;;;;;35.77;19.33;;;;;;;;;;10360768;28;20050;-85
2023/03/06 00:32:07;;;;;;;39.40;17.43;;;;;;;;;;10360858;28;20397;-85
2023/03/06 00:37:08;;;;;;;53.80;23.20;;;;;;;;;;10358447;28;20116;-86
2023/03/06 00:42:09;;;;;;;40.27;17.53;;;;;;;;;;10361223;28;20045;-85
2023/03/06 00:47:11;;;;;;;51.17;23.00;;;;;;;;;;10376010;22;20057;-84
2023/03/06 00:52:12;;;;;;;59.03;28.10;;;;;;;;;;10356373;28;20074;-84
2023/03/06 00:57:13;;;;;;;45.03;19.00;;;;;;;;;;10360091;28;20037;-84
2023/03/06 01:02:14;;;;;;;41.27;19.97;;;;;;;;;;10365997;28;20022;-84
2023/03/06 01:07:15;;;;;;;41.57;18.23;;;;;;;;;;10367329;28;20413;-85
2023/03/06 01:12:16;;;;;;;39.17;17.67;;;;;;;;;;10365129;28;20075;-85
2023/03/06 01:17:17;;;;;;;42.27;20.47;;;;;;;;;;10366667;28;20029;-85
2023/03/06 01:22:18;;;;;;;42.37;18.63;;;;;;;;;;10366846;28;20037;-84
2023/03/06 01:27:19;;;;;;;41.40;18.37;;;;;;;;;;10366257;28;20400;-84
2023/03/06 01:32:20;;;;;;;42.93;19.60;;;;;;;;;;10367006;28;20018;-83
2023/03/06 01:37:21;;;;;;;36.40;16.60;;;;;;;;;;10362305;28;20030;-83
2023/03/06 01:42:23;;;;;;;39.87;16.90;;;;;;;;;;10365968;28;20040;-83
2023/03/06 01:47:24;;;;;;;40.37;18.70;;;;;;;;;;10365184;28;20124;-83
2023/03/06 01:52:29;;;;;;;40.83;17.93;;;;;;;;;;10381364;28;20108;-83
2023/03/06 01:57:32;;;;;;;42.17;21.23;;;;;;;;;;10365372;28;20033;-83
2023/03/06 02:02:33;;;;;;;36.07;18.17;;;;;;;;;;10364551;28;20118;-83
2023/03/06 02:07:34;;;;;;;46.47;21.50;;;;;;;;;;10365018;28;20038;-83
2023/03/06 02:12:36;;;;;;;51.53;26.20;;;;;;;;;;10364292;28;20025;-83
2023/03/06 02:17:37;;;;;;;58.27;26.03;;;;;;;;;;10364746;28;20018;-83
2023/03/06 02:22:56;;;;;;;52.90;25.40;;;;;;;;;;10362320;28;20029;-83
2023/03/06 02:27:57;;;;;;;53.40;24.97;;;;;;;;;;10364156;28;20038;-84
2023/03/06 02:32:58;;;;;;;74.33;36.77;;;;;;;;;;10364012;28;20041;-82
2023/03/06 02:38:04;;;;;;;56.97;28.23;;;;;;;;;;10363711;28;20401;-83
2023/03/06 02:43:05;;;;;;;52.35;26.05;;;;;;;;;;10363167;28;20048;-84
2023/03/06 02:48:06;;;;;;;64.57;31.70;;;;;;;;;;10362985;28;20060;-83
2023/03/06 02:53:08;;;;;;;68.67;31.93;;;;;;;;;;10363568;28;20034;-83
2023/03/06 02:58:09;;;;;;;67.13;30.53;;;;;;;;;;10362901;28;20034;-83
2023/03/06 03:03:10;;;;;;;74.20;36.53;;;;;;;;;;10357815;28;20034;-84
2023/03/06 03:08:13;;;;;;;72.93;36.10;;;;;;;;;;10363052;28;20056;-82
2023/03/06 03:13:14;;;;;;;69.93;33.30;;;;;;;;;;10359931;28;20366;-82
2023/03/06 03:18:15;;;;;;;81.20;38.50;;;;;;;;;;10361603;28;20561;-82
2023/03/06 03:23:16;;;;;;;77.60;35.07;;;;;;;;;;10362471;28;20065;-83
2023/03/06 03:28:17;;;;;;;81.53;36.40;;;;;;;;;;10361872;28;20157;-83
2023/03/06 03:33:18;;;;;;;91.10;38.87;;;;;;;;;;10361519;28;20032;-83
2023/03/06 03:38:19;;;;;;;93.90;39.50;;;;;;;;;;10358927;28;20096;-82
2023/03/06 03:43:20;;;;;;;98.73;41.77;;;;;;;;;;10361594;28;20087;-84
2023/03/06 03:48:21;;;;;;;108.87;47.57;;;;;;;;;;10360549;28;20045;-83
2023/03/06 03:53:22;;;;;;;103.77;47.27;;;;;;;;;;10361397;28;20041;-83
2023/03/06 03:58:23;;;;;;;93.87;44.83;;;;;;;;;;10359490;28;20482;-85
2023/03/06 04:03:24;;;;;;;102.40;45.50;;;;;;;;;;10343930;28;20026;-84
2023/03/06 04:08:26;;;;;;;106.93;50.20;;;;;;;;;;10359868;28;20045;-85
2023/03/06 04:13:27;;;;;;;100.33;46.30;;;;;;;;;;10361318;28;20038;-86
2023/03/06 04:18:28;;;;;;;92.73;41.43;;;;;;;;;;10361341;28;20034;-86
2023/03/06 04:23:29;;;;;;;87.13;38.30;;;;;;;;;;10359947;28;20030;-86
2023/03/06 04:28:30;;;;;;;97.43;47.60;;;;;;;;;;10355141;28;20092;-86
2023/03/06 04:33:31;;;;;;;108.97;53.43;;;;;;;;;;10352484;28;20117;-85
2023/03/06 04:38:32;;;;;;;100.87;48.83;;;;;;;;;;10362813;28;20041;-88
2023/03/06 04:43:33;;;;;;;92.40;45.83;;;;;;;;;;10362598;28;20044;-86
2023/03/06 04:48:35;;;;;;;98.60;44.03;;;;;;;;;;10381143;28;20486;-86
2023/03/06 04:53:36;;;;;;;86.70;43.33;;;;;;;;;;10358058;28;20124;-87
2023/03/06 04:58:38;;;;;;;139.47;55.17;;;;;;;;;;10366538;28;20460;-85
2023/03/06 05:03:39;;;;;;;82.83;40.00;;;;;;;;;;10368349;28;20065;-86
2023/03/06 05:08:40;;;;;;;78.10;36.20;;;;;;;;;;10367727;28;20042;-88
2023/03/06 05:13:41;;;;;;;67.43;31.63;;;;;;;;;;10363519;28;20041;-85
2023/03/06 05:18:42;;;;;;;69.23;31.87;;;;;;;;;;10366239;28;20037;-88
2023/03/06 05:23:43;;;;;;;81.80;41.17;;;;;;;;;;10362098;28;20048;-87
2023/03/06 05:28:44;;;;;;;72.40;36.83;;;;;;;;;;10357212;28;20038;-87
2023/03/06 05:33:45;;;;;;;74.33;34.47;;;;;;;;;;10365530;28;20065;-87
2023/03/06 05:38:46;;;;;;;68.07;34.03;;;;;;;;;;10359473;28;20117;-87
2023/03/06 05:43:47;;;;;;;82.27;39.50;;;;;;;;;;10366677;28;20030;-87
2023/03/06 05:48:51;;;;;;;87.97;41.77;;;;;;;;;;10365695;28;20132;-87
2023/03/06 05:53:52;;;;;;;76.53;35.40;;;;;;;;;;10366161;28;20029;-87
2023/03/06 05:58:53;;;;;;;89.23;42.67;;;;;;;;;;10364121;28;20034;-86
2023/03/06 06:03:54;;;;;;;112.20;49.20;;;;;;;;;;10364991;28;20053;-87
2023/03/06 06:08:55;;;;;;;128.73;52.90;;;;;;;;;;10365904;28;20048;-87
2023/03/06 06:13:56;;;;;;;162.13;65.80;;;;;;;;;;10363512;28;20101;-87
2023/03/06 06:18:57;;;;;;;106.27;43.93;;;;;;;;;;10365844;28;20124;-87
2023/03/06 06:23:58;;;;;;;120.10;50.20;;;;;;;;;;10365251;28;20113;-87
2023/03/06 06:28:59;;;;;;;116.83;50.67;;;;;;;;;;10364668;28;20040;-87
2023/03/06 06:34:00;;;;;;;97.53;43.57;;;;;;;;;;10363439;28;20073;-87
2023/03/06 06:39:02;;;;;;;98.03;42.60;;;;;;;;;;10362672;28;20034;-87
2023/03/06 06:44:07;;;;;;;81.13;38.17;;;;;;;;;;10362971;28;20029;-87
2023/03/06 06:49:08;;;;;;;80.82;38.08;;;;;;;;;;10363903;28;20064;-86
2023/03/06 06:54:10;;;;;;;76.87;36.40;;;;;;;;;;10363433;28;20030;-87
2023/03/06 06:59:11;;;;;;;75.83;34.47;;;;;;;;;;10361934;28;20029;-86
2023/03/06 07:04:12;;;;;;;74.20;34.67;;;;;;;;;;10364401;28;20104;-87
2023/03/06 07:09:14;;;;;;;80.70;36.23;;;;;;;;;;10364021;28;20033;-85
2023/03/06 07:14:15;;;;;;;66.73;33.47;;;;;;;;;;10361531;28;20029;-86
2023/03/06 07:19:16;;;;;;;70.80;34.43;;;;;;;;;;10362852;28;20033;-85
2023/03/06 07:24:17;;;;;;;66.70;32.67;;;;;;;;;;10363140;28;20022;-86
2023/03/06 07:29:18;;;;;;;77.17;36.87;;;;;;;;;;10361007;28;20034;-85
2023/03/06 07:34:19;;;;;;;76.60;37.40;;;;;;;;;;10362652;28;20026;-88
2023/03/06 07:39:20;;;;;;;82.30;38.60;;;;;;;;;;10362390;28;20033;-84
2023/03/06 07:44:21;;;;;;;60.53;29.00;;;;;;;;;;10362573;28;20033;-84
2023/03/06 07:49:22;;;;;;;63.30;30.57;;;;;;;;;;10360488;28;20060;-84
2023/03/06 07:54:23;;;;;;;64.50;29.70;;;;;;;;;;10361569;28;20034;-84
2023/03/06 07:59:24;;;;;;;64.90;31.90;;;;;;;;;;10361462;28;20575;-84
2023/03/06 08:04:25;;;;;;;63.63;29.50;;;;;;;;;;10361937;28;20425;-83
2023/03/06 08:09:26;;;;;;;58.27;27.33;;;;;;;;;;10362752;28;20061;-84
2023/03/06 08:14:27;;;;;;;67.23;30.47;;;;;;;;;;10368673;28;20042;-84
2023/03/06 08:19:28;;;;;;;59.33;25.77;;;;;;;;;;10369943;28;20448;-84
2023/03/06 08:24:29;;;;;;;48.53;21.73;;;;;;;;;;10369309;28;20049;-86
2023/03/06 08:29:30;;;;;;;74.43;33.23;;;;;;;;;;10369281;28;20060;-86
2023/03/06 08:34:31;;;;;;;45.90;23.00;;;;;;;;;;10369362;28;20026;-84
2023/03/06 08:39:32;;;;;;;58.63;25.47;;;;;;;;;;10368909;28;20098;-83
2023/03/06 08:44:33;;;;;;;72.53;29.73;;;;;;;;;;10368727;28;20034;-84
2023/03/06 08:49:37;;;;;;;66.07;29.17;;;;;;;;;;10367416;28;20080;-85
2023/03/06 08:54:38;;;;;;;63.60;23.80;;;;;;;;;;10366962;28;20405;-84
2023/03/06 08:59:40;;;;;;;31.43;15.63;;;;;;;;;;10368812;28;20036;-84
2023/03/06 09:04:41;;;;;;;28.53;15.10;;;;;;;;;;10368408;28;20569;-85
2023/03/06 09:09:42;;;;;;;28.27;14.37;;;;;;;;;;10362852;28;20053;-84
2023/03/06 09:14:43;;;;;;;29.77;14.30;;;;;;;;;;10364019;28;20513;-83
2023/03/06 09:19:45;;;;;;;25.20;12.63;;;;;;;;;;10365706;28;20069;-83
2023/03/06 09:24:46;;;;;;;23.83;12.70;;;;;;;;;;10344089;28;20038;-83
2023/03/06 09:29:47;;;;;;;52.03;20.63;;;;;;;;;;10344222;28;20449;-82
2023/03/06 09:34:48;;;;;;;29.13;14.77;;;;;;;;;;10363740;28;20030;-83
2023/03/06 09:39:49;;;;;;;42.47;17.20;;;;;;;;;;10354534;28;20158;-80
2023/03/06 09:44:52;;;;;;;21.70;11.23;;;;;;;;;;10365513;28;20041;-81
2023/03/06 09:50:12;;;;;;;25.47;13.17;;;;;;;;;;10360947;28;20046;-83
2023/03/06 09:55:21;;;;;;;40.47;16.53;;;;;;;;;;10344488;28;20513;-84
2023/03/06 10:00:31;;;;;;;24.37;12.07;;;;;;;;;;10363645;28;20129;-78
2023/03/06 10:05:34;;;;;;;31.07;14.40;;;;;;;;;;10349423;28;20045;-81
2023/03/06 10:10:43;;;;;;;28.20;14.60;;;;;;;;;;10346445;28;20072;-81
2023/03/06 10:15:44;;;;;;;35.47;15.40;;;;;;;;;;10353377;28;20037;-80
2023/03/06 10:20:57;;;;;;;35.03;15.83;;;;;;;;;;10379679;28;20500;-82
2023/03/06 10:26:02;;;;;;;67.27;25.97;;;;;;;;;;10362774;28;20045;-81
2023/03/06 10:31:14;;;;;;;48.30;20.43;;;;;;;;;;10364167;28;20561;-82
2023/03/06 10:36:17;;;;;;;27.30;14.93;;;;;;;;;;10363666;28;20474;-81
2023/03/06 10:41:21;;;;;;;36.17;15.33;;;;;;;;;;10363983;28;20026;-83
2023/03/06 10:46:29;;;;;;;36.87;17.83;;;;;;;;;;10356318;28;20414;-80
2023/03/06 10:51:31;;;;;;;24.03;12.90;;;;;;;;;;10360821;28;20058;-81
2023/03/06 10:56:34;;;;;;;27.17;14.37;;;;;;;;;;10362718;28;20065;-80
2023/03/06 11:01:35;;;;;;;31.53;16.23;;;;;;;;;;10355163;28;20059;-81
2023/03/06 11:06:36;;;;;;;25.33;13.43;;;;;;;;;;10362263;28;20046;-81
2023/03/06 11:11:37;;;;;;;25.93;14.63;;;;;;;;;;10361402;28;20026;-81
2023/03/06 11:16:38;;;;;;;31.50;13.73;;;;;;;;;;10359793;28;20049;-81
2023/03/06 11:21:39;;;;;;;35.33;18.43;;;;;;;;;;10361439;28;20029;-81
2023/03/06 11:26:50;;;;;;;56.23;22.57;;;;;;;;;;10358381;28;20405;-81
2023/03/06 11:32:10;;;;;;;23.07;11.60;;;;;;;;;;10379294;23;20068;-81
2023/03/06 11:37:15;;;;;;;81.80;31.80;;;;;;;;;;10365115;28;20022;-79
2023/03/06 11:42:19;;;;;;;25.42;12.07;;;;;;;;;;10376900;28;20037;-79
2023/03/06 11:47:20;;;;;;;23.13;10.30;;;;;;;;;;10361227;28;20050;-80
2023/03/06 11:52:24;;;;;;;32.53;15.47;;;;;;;;;;10362540;28;20057;-79
2023/03/06 11:57:34;;;;;;;17.57;8.63;;;;;;;;;;10376131;28;20068;-80
2023/03/06 12:02:41;;;;;;;31.00;13.47;;;;;;;;;;10373852;28;20037;-80
2023/03/06 12:07:49;;;;;;;17.87;8.53;;;;;;;;;;10361370;28;20068;-79
2023/03/06 12:12:50;;;;;;;15.07;7.67;;;;;;;;;;10360405;28;20559;-81
2023/03/06 12:17:58;;;;;;;19.97;9.87;;;;;;;;;;10360131;28;20127;-81
2023/03/06 12:23:22;;;;;;;15.47;7.57;;;;;;;;;;10360110;28;20069;-79
2023/03/06 12:28:29;;;;;;;20.37;8.80;;;;;;;;;;10351815;28;20049;-78
2023/03/06 12:33:44;;;;;;;23.50;10.90;;;;;;;;;;10359139;28;20046;-79
2023/03/06 12:38:59;;;;;;;13.10;7.33;;;;;;;;;;10360410;28;20396;-80
2023/03/06 12:44:02;;;;;;;14.43;7.87;;;;;;;;;;10359896;28;20045;-81
2023/03/06 12:49:08;;;;;;;16.57;8.60;;;;;;;;;;10359996;28;20038;-79
2023/03/06 12:54:10;;;;;;;14.82;8.52;;;;;;;;;;10359623;28;20049;-80
2023/03/06 12:59:30;;;;;;;20.90;9.60;;;;;;;;;;10365409;28;20134;-81
2023/03/06 13:04:40;;;;;;;18.67;8.40;;;;;;;;;;10367030;28;20437;-82
2023/03/06 13:10:01;;;;;;;24.77;11.43;;;;;;;;;;10366358;28;20489;-80
2023/03/06 13:15:21;;;;;;;39.13;17.07;;;;;;;;;;10356032;28;20036;-81
2023/03/06 13:20:28;;;;;;;19.80;7.93;;;;;;;;;;10365711;28;20720;-81
2023/03/06 13:25:29;;;;;;;15.43;8.20;;;;;;;;;;10365580;28;20436;-81
2023/03/06 13:30:36;;;;;;;17.00;8.97;;;;;;;;;;10356718;28;20116;-81
2023/03/06 13:35:40;;;;;;;21.73;11.07;;;;;;;;;;10372568;28;20076;-82
2023/03/06 13:40:41;;;;;;;29.97;13.17;;;;;;;;;;10362509;28;20034;-80
2023/03/06 13:45:42;;;;;;;68.57;23.33;;;;;;;;;;10364407;28;20030;-82
2023/03/06 13:50:44;;;;;;;33.23;12.83;;;;;;;;;;10365423;28;20034;-81
2023/03/06 13:56:05;;;;;;;37.97;14.90;;;;;;;;;;10364009;28;20109;-81
2023/03/06 14:01:19;;;;;;;26.07;12.33;;;;;;;;;;10358992;28;20022;-81
2023/03/06 14:06:33;;;;;;;42.90;14.47;;;;;;;;;;10361896;28;20037;-80
2023/03/06 14:11:35;;;;;;;37.17;14.73;;;;;;;;;;10358660;28;20034;-81
2023/03/06 14:16:39;;;;;;;32.23;13.03;;;;;;;;;;10355637;28;20080;-80
2023/03/06 14:21:47;;;;;;;28.53;12.53;;;;;;;;;;10356312;28;20382;-80
2023/03/06 14:26:49;;;;;;;35.93;15.73;;;;;;;;;;10361859;28;20041;-80
2023/03/06 14:31:55;;;;;;;40.23;17.07;;;;;;;;;;10361291;28;20058;-79
2023/03/06 14:36:59;;;;;;;20.55;9.20;;;;;;;;;;10362892;28;20071;-80
2023/03/06 14:42:06;;;;;;;16.53;8.17;;;;;;;;;;10351793;28;20036;-79
2023/03/06 14:47:26;;;;;;;21.97;9.00;;;;;;;;;;10363259;28;20405;-80
2023/03/06 14:52:27;;;;;;;19.20;7.60;;;;;;;;;;10363988;28;20021;-80
2023/03/06 14:57:28;;;;;;;24.57;11.93;;;;;;;;;;10362990;28;20108;-80
2023/03/06 15:02:32;;;;;;;44.13;18.10;;;;;;;;;;10361253;28;20453;-79
2023/03/06 15:07:34;;;;;;;34.17;14.17;;;;;;;;;;10362776;28;20038;-79
2023/03/06 15:12:37;;;;;;;28.60;13.13;;;;;;;;;;10361391;28;20060;-79
2023/03/06 15:17:43;;;;;;;36.23;15.20;;;;;;;;;;10353859;28;20030;-79
2023/03/06 15:22:49;;;;;;;44.10;18.00;;;;;;;;;;10359410;28;20470;-80
2023/03/06 15:27:57;;;;;;;30.33;14.23;;;;;;;;;;10362117;28;20057;-80
2023/03/06 15:33:09;;;;;;;51.57;23.90;;;;;;;;;;10350831;28;20085;-79
2023/03/06 15:38:42;;;;;;;51.33;21.43;;;;;;;;;;10361887;28;20017;-82
2023/03/06 15:43:43;;;;;;;42.80;19.77;;;;;;;;;;10309273;28;20717;-81
2023/03/06 15:48:57;;;;;;;42.00;17.23;;;;;;;;;;10362079;28;20038;-80
2023/03/06 15:53:58;;;;;;;29.47;13.43;;;;;;;;;;10362005;28;20092;-81
2023/03/06 15:59:00;;;;;;;70.73;26.33;;;;;;;;;;10361389;28;20087;-80
2023/03/06 16:04:01;;;;;;;32.17;14.97;;;;;;;;;;10359591;28;20051;-80
2023/03/06 16:09:02;;;;;;;28.37;12.77;;;;;;;;;;10361173;28;20074;-82
2023/03/06 16:14:03;;;;;;;28.13;13.47;;;;;;;;;;10357065;28;20088;-80
2023/03/06 16:19:12;;;;;;;29.27;13.60;;;;;;;;;;10359334;28;20026;-80
2023/03/06 16:24:17;;;;;;;26.20;13.43;;;;;;;;;;10361350;28;20077;-80
2023/03/06 16:29:19;;;;;;;36.80;18.47;;;;;;;;;;10361596;28;20081;-81
2023/03/06 16:34:20;;;;;;;35.67;15.80;;;;;;;;;;10357023;28;20033;-81
2023/03/06 16:39:22;;;;;;;31.90;16.13;;;;;;;;;;10367711;28;20034;-80
2023/03/06 16:44:23;;;;;;;28.37;15.10;;;;;;;;;;10352625;28;20508;-79
2023/03/06 16:49:25;;;;;;;37.97;17.00;;;;;;;;;;10367445;28;20033;-80
2023/03/06 16:54:26;;;;;;;31.23;16.50;;;;;;;;;;10366689;28;20585;-79
2023/03/06 16:59:27;;;;;;;41.53;17.50;;;;;;;;;;10367168;28;20083;-80
2023/03/06 17:04:28;;;;;;;34.80;16.53;;;;;;;;;;10366492;28;20519;-81
2023/03/06 17:09:29;;;;;;;73.10;37.37;;;;;;;;;;10363833;28;20099;-79
2023/03/06 17:14:32;;;;;;;107.00;42.73;;;;;;;;;;10397160;22;20140;-82
2023/03/06 17:19:33;;;;;;;150.00;59.13;;;;;;;;;;10353622;28;20041;-82
2023/03/06 17:24:35;;;;;;;202.37;85.77;;;;;;;;;;10366480;28;20510;-80
2023/03/06 17:29:36;;;;;;;206.20;86.73;;;;;;;;;;10362654;28;20041;-81
2023/03/06 17:34:37;;;;;;;67.73;32.93;;;;;;;;;;10366940;28;20034;-79
2023/03/06 17:39:38;;;;;;;99.73;49.40;;;;;;;;;;10361969;28;20445;-79
2023/03/06 17:44:39;;;;;;;76.63;37.10;;;;;;;;;;10365881;28;20508;-81
2023/03/06 17:49:40;;;;;;;73.57;32.93;;;;;;;;;;10364130;28;20113;-80
2023/03/06 17:54:41;;;;;;;124.20;53.37;;;;;;;;;;10364258;28;20026;-80
2023/03/06 17:59:46;;;;;;;129.23;55.63;;;;;;;;;;10378608;28;20018;-80
2023/03/06 18:04:47;;;;;;;74.00;38.90;;;;;;;;;;10346504;28;20375;-82
2023/03/06 18:09:48;;;;;;;81.70;31.73;;;;;;;;;;10325012;28;20070;-79
2023/03/06 18:14:49;;;;;;;134.73;59.03;;;;;;;;;;10321137;28;20058;-81
2023/03/06 18:19:50;;;;;;;121.33;52.87;;;;;;;;;;10326300;28;20037;-79
2023/03/06 18:24:52;;;;;;;104.57;40.20;;;;;;;;;;10329221;28;20043;-79
2023/03/06 18:29:54;;;;;;;105.13;46.00;;;;;;;;;;10328111;28;20041;-80
2023/03/06 18:34:55;;;;;;;114.37;43.47;;;;;;;;;;10333684;28;20030;-79
2023/03/06 18:39:56;;;;;;;118.10;49.47;;;;;;;;;;10321249;28;20045;-79
2023/03/06 18:44:57;;;;;;;123.53;51.43;;;;;;;;;;10323986;28;20117;-81
2023/03/06 18:49:58;;;;;;;114.80;48.60;;;;;;;;;;10318610;28;20140;-80
2023/03/06 18:54:59;;;;;;;88.53;38.33;;;;;;;;;;10322351;28;20372;-79
2023/03/06 19:00:00;;;;;;;95.73;41.60;;;;;;;;;;10320903;28;20085;-79
2023/03/06 19:05:01;;;;;;;98.63;38.10;;;;;;;;;;10341059;28;20088;-81
2023/03/06 19:10:02;;;;;;;104.23;42.83;;;;;;;;;;10313843;28;20031;-79
2023/03/06 19:15:04;;;;;;;113.50;52.97;;;;;;;;;;10309680;28;20485;-80
2023/03/06 19:20:05;;;;;;;112.57;45.10;;;;;;;;;;10337583;28;20029;-80
2023/03/06 19:25:06;;;;;;;176.53;76.53;;;;;;;;;;10315418;28;20042;-81
2023/03/06 19:30:08;;;;;;;135.57;62.57;;;;;;;;;;10344756;28;20045;-79
2023/03/06 19:35:09;;;;;;;100.40;43.73;;;;;;;;;;10329605;28;20042;-82
2023/03/06 19:40:11;;;;;;;122.30;57.93;;;;;;;;;;10344080;28;20488;-79
2023/03/06 19:45:12;;;;;;;169.07;75.53;;;;;;;;;;10312152;28;20053;-79
2023/03/06 19:50:13;;;;;;;134.27;58.67;;;;;;;;;;10321714;28;20589;-81
2023/03/06 19:55:14;;;;;;;135.13;59.00;;;;;;;;;;10320855;28;20030;-78
2023/03/06 20:00:15;;;;;;;116.07;50.43;;;;;;;;;;10319702;28;20061;-80
2023/03/06 20:05:17;;;;;;;117.33;53.00;;;;;;;;;;10315986;28;20045;-80
2023/03/06 20:10:18;;;;;;;131.20;56.10;;;;;;;;;;10324301;28;20043;-79
2023/03/06 20:15:21;;;;;;;130.23;58.30;;;;;;;;;;10340132;28;20574;-78
2023/03/06 20:20:22;;;;;;;119.17;50.60;;;;;;;;;;10329559;28;20026;-79
2023/03/06 20:25:23;;;;;;;133.63;58.07;;;;;;;;;;10341796;28;20030;-80
2023/03/06 20:30:24;;;;;;;125.93;55.90;;;;;;;;;;10324348;28;20062;-80
2023/03/06 20:35:25;;;;;;;107.73;47.67;;;;;;;;;;10331811;28;20530;-80
2023/03/06 20:40:26;;;;;;;105.67;48.80;;;;;;;;;;10332241;28;20052;-78
2023/03/06 20:45:27;;;;;;;96.53;40.70;;;;;;;;;;10321718;28;20026;-78
2023/03/06 20:50:28;;;;;;;92.30;42.23;;;;;;;;;;10325344;28;20045;-78
2023/03/06 20:55:29;;;;;;;86.57;41.40;;;;;;;;;;10324395;28;20027;-79
2023/03/06 21:00:30;;;;;;;92.23;43.37;;;;;;;;;;10318842;28;20027;-79
2023/03/06 21:05:31;;;;;;;101.33;46.30;;;;;;;;;;10310959;28;20045;-79
2023/03/06 21:10:32;;;;;;;90.73;43.93;;;;;;;;;;10325434;28;20461;-80
2023/03/06 21:15:33;;;;;;;95.53;43.07;;;;;;;;;;10311859;28;20044;-79
2023/03/06 21:20:37;;;;;;;110.17;50.67;;;;;;;;;;10334662;28;20041;-80
2023/03/06 21:25:45;;;;;;;107.57;51.47;;;;;;;;;;10326788;28;20034;-79
2023/03/06 21:30:46;;;;;;;96.50;45.53;;;;;;;;;;10337168;28;20037;-80
2023/03/06 21:35:47;;;;;;;104.57;47.60;;;;;;;;;;10327040;28;20033;-79
2023/03/06 21:40:48;;;;;;;104.93;46.43;;;;;;;;;;10326933;28;20038;-79
2023/03/06 21:45:52;;;;;;;108.07;48.20;;;;;;;;;;10332193;28;20046;-79
2023/03/06 21:51:02;;;;;;;95.73;41.30;;;;;;;;;;10326636;28;20030;-79
2023/03/06 21:56:03;;;;;;;97.93;42.60;;;;;;;;;;10326136;28;20035;-79
2023/03/06 22:01:08;;;;;;;96.93;45.90;;;;;;;;;;10339192;28;20080;-80
2023/03/06 22:06:09;;;;;;;99.17;43.20;;;;;;;;;;10336021;28;20030;-79
2023/03/06 22:11:12;;;;;;;105.30;46.23;;;;;;;;;;10325350;28;20113;-81
2023/03/06 22:16:13;;;;;;;148.07;61.47;;;;;;;;;;10335537;28;20529;-80
2023/03/06 22:21:15;;;;;;;108.37;49.37;;;;;;;;;;10334073;28;20084;-80
2023/03/06 22:26:17;;;;;;;105.90;47.67;;;;;;;;;;10330505;28;20023;-80
2023/03/06 22:31:19;;;;;;;96.67;43.90;;;;;;;;;;10330307;28;20061;-80
2023/03/06 22:36:21;;;;;;;84.60;38.50;;;;;;;;;;10324460;28;20465;-80
2023/03/06 22:41:22;;;;;;;80.37;37.77;;;;;;;;;;10323962;28;20053;-79
2023/03/06 22:46:23;;;;;;;82.57;35.90;;;;;;;;;;10324321;28;20049;-78
2023/03/06 22:51:25;;;;;;;67.23;30.93;;;;;;;;;;10327392;28;20046;-79
2023/03/06 22:56:26;;;;;;;76.47;31.70;;;;;;;;;;10334853;28;20603;-80
2023/03/06 23:01:28;;;;;;;67.27;33.37;;;;;;;;;;10323971;28;20185;-80
2023/03/06 23:06:33;;;;;;;68.07;33.17;;;;;;;;;;10323029;28;20574;-79
2023/03/06 23:11:34;;;;;;;65.43;31.65;;;;;;;;;;10322787;28;20062;-79
2023/03/06 23:16:36;;;;;;;71.17;33.63;;;;;;;;;;10333451;28;20025;-79
2023/03/06 23:21:38;;;;;;;78.30;36.57;;;;;;;;;;10337479;28;20018;-79
2023/03/06 23:26:39;;;;;;;74.37;35.67;;;;;;;;;;10331608;28;20707;-81
2023/03/06 23:31:40;;;;;;;91.83;43.97;;;;;;;;;;10345002;28;20057;-80
2023/03/06 23:36:41;;;;;;;86.13;41.17;;;;;;;;;;10328854;28;20027;-80
2023/03/06 23:41:42;;;;;;;92.43;44.17;;;;;;;;;;10320691;28;20023;-80
2023/03/06 23:46:43;;;;;;;97.63;45.67;;;;;;;;;;10323763;28;20049;-79
2023/03/06 23:51:44;;;;;;;138.97;57.87;;;;;;;;;;10331685;28;20048;-80
2023/03/06 23:56:45;;;;;;;152.53;63.57;;;;;;;;;;10335183;28;20391;-78
